Philadelphia, Pennsylvania
Current Conditions -  °F | °C
As of 5:54 AM on Friday 24 Oct 2014 (Local Time) from KPHL Reporting Station
Broken Clouds Broken Clouds  
Wind Chill: 56°   Ceiling: 3300
Heat Index: 56°   Visibility: 10mi
Dew Point: 44°   Wind: 12mph
Humidity: 64%   Direction: 340°NNW
Pressure: 29.85"   Gusts: NA
Location:  39.95°N, 75.16°W
Report Text: KPHL 240954Z 34010KT 10SM BKN033 BKN044 13/07 A2985 RMK AO2 SLP106 T01330067 PNO $
Loading
Personal Weather Stations






























Interactive Weather Map New forecast layout! Learn more

10-Day Weather Forecast

Advertisements
Track Severe Weather on mobile